sensor_id;sensor_type;location;lat;lon;timestamp;pressure;altitude;pressure_sealevel;temperature;humidity
34482;BME280;20720;48.886;9.388;2023-03-14T00:01:52;96944.09;;;11.63;100.00
34482;BME280;20720;48.886;9.388;2023-03-14T00:04:17;96938.28;;;11.78;100.00
34482;BME280;20720;48.886;9.388;2023-03-14T00:06:42;96928.56;;;11.78;100.00
34482;BME280;20720;48.886;9.388;2023-03-14T00:09:07;96894.56;;;11.60;100.00
34482;BME280;20720;48.886;9.388;2023-03-14T00:11:32;96901.50;;;11.83;100.00
34482;BME280;20720;48.886;9.388;2023-03-14T00:13:58;96910.25;;;11.67;100.00
34482;BME280;20720;48.886;9.388;2023-03-14T00:16:24;96890.38;;;11.59;100.00
34482;BME280;20720;48.886;9.388;2023-03-14T00:18:49;96907.91;;;11.70;100.00
34482;BME280;20720;48.886;9.388;2023-03-14T00:21:15;96902.47;;;11.60;100.00
34482;BME280;20720;48.886;9.388;2023-03-14T00:23:41;96887.38;;;11.67;100.00
34482;BME280;20720;48.886;9.388;2023-03-14T00:26:07;96883.84;;;11.78;100.00
34482;BME280;20720;48.886;9.388;2023-03-14T00:28:33;96891.47;;;11.63;100.00
34482;BME280;20720;48.886;9.388;2023-03-14T00:30:58;96884.41;;;11.64;100.00
34482;BME280;20720;48.886;9.388;2023-03-14T00:33:23;96868.66;;;11.85;100.00
34482;BME280;20720;48.886;9.388;2023-03-14T00:35:52;96849.69;;;11.83;100.00
34482;BME280;20720;48.886;9.388;2023-03-14T00:38:17;96859.25;;;11.89;100.00
34482;BME280;20720;48.886;9.388;2023-03-14T00:40:43;96846.81;;;11.85;100.00
34482;BME280;20720;48.886;9.388;2023-03-14T00:43:08;96851.41;;;11.94;100.00
34482;BME280;20720;48.886;9.388;2023-03-14T00:45:33;96846.66;;;11.91;100.00
34482;BME280;20720;48.886;9.388;2023-03-14T00:47:58;96843.28;;;11.96;100.00
34482;BME280;20720;48.886;9.388;2023-03-14T00:50:23;96838.34;;;11.99;100.00
34482;BME280;20720;48.886;9.388;2023-03-14T00:52:49;96819.47;;;12.07;100.00
34482;BME280;20720;48.886;9.388;2023-03-14T00:55:14;96804.28;;;12.14;100.00
34482;BME280;20720;48.886;9.388;2023-03-14T00:57:39;96799.03;;;12.14;100.00
34482;BME280;20720;48.886;9.388;2023-03-14T01:00:05;96783.66;;;11.85;100.00
34482;BME280;20720;48.886;9.388;2023-03-14T01:02:32;96791.97;;;12.20;100.00
34482;BME280;20720;48.886;9.388;2023-03-14T01:04:58;96788.03;;;11.96;100.00
34482;BME280;20720;48.886;9.388;2023-03-14T01:07:23;96781.63;;;12.13;100.00
34482;BME280;20720;48.886;9.388;2023-03-14T01:09:51;96780.19;;;12.22;100.00
34482;BME280;20720;48.886;9.388;2023-03-14T01:12:16;96769.97;;;12.31;100.00
34482;BME280;20720;48.886;9.388;2023-03-14T01:14:41;96765.94;;;12.23;100.00
34482;BME280;20720;48.886;9.388;2023-03-14T01:17:06;96760.78;;;12.07;100.00
34482;BME280;20720;48.886;9.388;2023-03-14T01:19:32;96760.13;;;12.48;100.00
34482;BME280;20720;48.886;9.388;2023-03-14T01:21:57;96761.13;;;12.15;100.00
34482;BME280;20720;48.886;9.388;2023-03-14T01:24:22;96751.25;;;12.27;100.00
34482;BME280;20720;48.886;9.388;2023-03-14T01:26:47;96759.69;;;12.29;100.00
34482;BME280;20720;48.886;9.388;2023-03-14T01:29:12;96753.28;;;12.20;100.00
34482;BME280;20720;48.886;9.388;2023-03-14T01:31:38;96743.91;;;12.29;100.00
34482;BME280;20720;48.886;9.388;2023-03-14T01:34:03;96751.69;;;12.46;100.00
34482;BME280;20720;48.886;9.388;2023-03-14T01:36:28;96736.84;;;12.08;100.00
34482;BME280;20720;48.886;9.388;2023-03-14T01:38:53;96737.63;;;12.09;100.00
34482;BME280;20720;48.886;9.388;2023-03-14T01:41:20;96726.47;;;12.02;100.00
34482;BME280;20720;48.886;9.388;2023-03-14T01:43:46;96722.97;;;12.18;100.00
34482;BME280;20720;48.886;9.388;2023-03-14T01:46:14;96709.66;;;12.29;100.00
34482;BME280;20720;48.886;9.388;2023-03-14T01:48:43;96696.63;;;12.13;100.00
34482;BME280;20720;48.886;9.388;2023-03-14T01:51:12;96679.63;;;12.30;100.00
34482;BME280;20720;48.886;9.388;2023-03-14T01:53:40;96673.16;;;12.11;100.00
34482;BME280;20720;48.886;9.388;2023-03-14T01:56:07;96661.91;;;12.21;100.00
34482;BME280;20720;48.886;9.388;2023-03-14T01:58:33;96650.53;;;12.15;100.00
34482;BME280;20720;48.886;9.388;2023-03-14T02:01:02;96647.22;;;12.25;100.00
34482;BME280;20720;48.886;9.388;2023-03-14T02:03:28;96643.25;;;12.22;100.00
34482;BME280;20720;48.886;9.388;2023-03-14T02:05:55;96642.56;;;12.05;100.00
34482;BME280;20720;48.886;9.388;2023-03-14T02:08:24;96637.94;;;12.17;100.00
34482;BME280;20720;48.886;9.388;2023-03-14T02:10:52;96642.91;;;12.14;100.00
34482;BME280;20720;48.886;9.388;2023-03-14T02:13:17;96647.59;;;12.07;100.00
34482;BME280;20720;48.886;9.388;2023-03-14T02:15:43;96633.75;;;12.21;100.00
34482;BME280;20720;48.886;9.388;2023-03-14T02:18:09;96633.13;;;12.09;100.00
34482;BME280;20720;48.886;9.388;2023-03-14T02:20:38;96634.97;;;12.41;100.00
34482;BME280;20720;48.886;9.388;2023-03-14T02:23:07;96615.97;;;12.34;100.00
34482;BME280;20720;48.886;9.388;2023-03-14T02:28:03;96613.81;;;12.30;100.00
34482;BME280;20720;48.886;9.388;2023-03-14T02:30:29;96613.56;;;12.32;100.00
34482;BME280;20720;48.886;9.388;2023-03-14T02:32:57;96600.09;;;12.28;100.00
34482;BME280;20720;48.886;9.388;2023-03-14T02:35:25;96588.47;;;12.24;100.00
34482;BME280;20720;48.886;9.388;2023-03-14T02:37:55;96574.81;;;12.22;100.00
34482;BME280;20720;48.886;9.388;2023-03-14T02:40:22;96560.06;;;12.26;100.00
34482;BME280;20720;48.886;9.388;2023-03-14T02:42:47;96573.78;;;12.28;100.00
34482;BME280;20720;48.886;9.388;2023-03-14T02:47:44;96561.84;;;12.16;100.00
34482;BME280;20720;48.886;9.388;2023-03-14T02:50:22;96569.47;;;12.17;100.00
34482;BME280;20720;48.886;9.388;2023-03-14T02:52:48;96570.03;;;12.19;100.00
34482;BME280;20720;48.886;9.388;2023-03-14T02:55:14;96546.16;;;12.36;100.00
34482;BME280;20720;48.886;9.388;2023-03-14T02:57:39;96539.50;;;12.23;100.00
34482;BME280;20720;48.886;9.388;2023-03-14T03:00:04;96544.84;;;11.97;100.00
34482;BME280;20720;48.886;9.388;2023-03-14T03:02:30;96533.09;;;12.09;100.00
34482;BME280;20720;48.886;9.388;2023-03-14T03:04:55;96529.00;;;12.28;100.00
34482;BME280;20720;48.886;9.388;2023-03-14T03:07:20;96528.06;;;12.03;100.00
34482;BME280;20720;48.886;9.388;2023-03-14T03:09:46;96518.47;;;12.28;100.00
34482;BME280;20720;48.886;9.388;2023-03-14T03:12:11;96515.28;;;12.21;100.00
34482;BME280;20720;48.886;9.388;2023-03-14T03:14:36;96506.03;;;12.19;100.00
34482;BME280;20720;48.886;9.388;2023-03-14T03:17:02;96510.97;;;12.05;100.00
34482;BME280;20720;48.886;9.388;2023-03-14T03:19:28;96503.91;;;12.16;100.00
34482;BME280;20720;48.886;9.388;2023-03-14T03:21:53;96505.38;;;12.39;100.00
34482;BME280;20720;48.886;9.388;2023-03-14T03:24:18;96505.47;;;12.12;100.00
34482;BME280;20720;48.886;9.388;2023-03-14T03:26:43;96505.19;;;12.08;100.00
34482;BME280;20720;48.886;9.388;2023-03-14T03:29:08;96493.59;;;12.51;100.00
34482;BME280;20720;48.886;9.388;2023-03-14T03:31:36;96500.72;;;12.09;100.00
34482;BME280;20720;48.886;9.388;2023-03-14T03:34:01;96500.22;;;12.12;100.00
34482;BME280;20720;48.886;9.388;2023-03-14T03:36:26;96497.94;;;11.89;100.00
34482;BME280;20720;48.886;9.388;2023-03-14T03:38:52;96499.41;;;12.11;100.00
34482;BME280;20720;48.886;9.388;2023-03-14T03:41:17;96484.44;;;12.17;100.00
34482;BME280;20720;48.886;9.388;2023-03-14T03:43:42;96479.50;;;12.25;100.00
34482;BME280;20720;48.886;9.388;2023-03-14T03:46:07;96486.78;;;12.13;100.00
34482;BME280;20720;48.886;9.388;2023-03-14T03:48:33;96485.41;;;12.06;100.00
34482;BME280;20720;48.886;9.388;2023-03-14T03:50:58;96486.13;;;11.91;100.00
34482;BME280;20720;48.886;9.388;2023-03-14T03:53:23;96476.63;;;12.32;100.00
34482;BME280;20720;48.886;9.388;2023-03-14T03:55:48;96481.03;;;12.16;100.00
34482;BME280;20720;48.886;9.388;2023-03-14T03:58:14;96497.19;;;12.35;100.00
34482;BME280;20720;48.886;9.388;2023-03-14T04:00:39;96488.75;;;11.91;100.00
34482;BME280;20720;48.886;9.388;2023-03-14T04:03:04;96485.56;;;11.89;100.00
34482;BME280;20720;48.886;9.388;2023-03-14T04:05:29;96486.13;;;11.96;100.00
34482;BME280;20720;48.886;9.388;2023-03-14T04:07:55;96488.56;;;12.03;100.00
34482;BME280;20720;48.886;9.388;2023-03-14T04:10:20;96480.69;;;12.03;100.00
34482;BME280;20720;48.886;9.388;2023-03-14T04:12:45;96485.06;;;11.92;100.00
34482;BME280;20720;48.886;9.388;2023-03-14T04:15:10;96485.66;;;11.99;100.00
34482;BME280;20720;48.886;9.388;2023-03-14T04:17:35;96492.69;;;12.30;100.00
34482;BME280;20720;48.886;9.388;2023-03-14T04:20:01;96492.44;;;11.90;100.00
34482;BME280;20720;48.886;9.388;2023-03-14T04:22:26;96480.84;;;11.91;100.00
34482;BME280;20720;48.886;9.388;2023-03-14T04:24:51;96487.59;;;12.19;100.00
34482;BME280;20720;48.886;9.388;2023-03-14T04:27:16;96490.28;;;11.82;100.00
34482;BME280;20720;48.886;9.388;2023-03-14T04:29:42;96488.00;;;12.38;100.00
34482;BME280;20720;48.886;9.388;2023-03-14T04:32:07;96493.84;;;12.08;100.00
34482;BME280;20720;48.886;9.388;2023-03-14T04:34:32;96492.25;;;11.70;100.00
34482;BME280;20720;48.886;9.388;2023-03-14T04:36:58;96491.34;;;11.86;100.00
34482;BME280;20720;48.886;9.388;2023-03-14T04:39:23;96487.75;;;11.97;100.00
34482;BME280;20720;48.886;9.388;2023-03-14T04:41:48;96490.00;;;12.20;100.00
34482;BME280;20720;48.886;9.388;2023-03-14T04:44:13;96488.00;;;11.96;100.00
34482;BME280;20720;48.886;9.388;2023-03-14T04:46:38;96469.34;;;12.02;100.00
34482;BME280;20720;48.886;9.388;2023-03-14T04:49:03;96474.94;;;12.11;100.00
34482;BME280;20720;48.886;9.388;2023-03-14T04:51:29;96479.94;;;12.12;100.00
34482;BME280;20720;48.886;9.388;2023-03-14T04:53:54;96466.34;;;11.84;100.00
34482;BME280;20720;48.886;9.388;2023-03-14T04:56:19;96471.00;;;12.13;100.00
34482;BME280;20720;48.886;9.388;2023-03-14T04:58:44;96467.50;;;12.03;100.00
34482;BME280;20720;48.886;9.388;2023-03-14T05:01:10;96464.63;;;12.04;100.00
34482;BME280;20720;48.886;9.388;2023-03-14T05:03:35;96464.72;;;12.19;100.00
34482;BME280;20720;48.886;9.388;2023-03-14T05:06:02;96470.66;;;12.52;100.00
34482;BME280;20720;48.886;9.388;2023-03-14T05:08:27;96468.78;;;11.95;100.00
34482;BME280;20720;48.886;9.388;2023-03-14T05:10:56;96464.31;;;11.96;100.00
34482;BME280;20720;48.886;9.388;2023-03-14T05:13:23;96469.50;;;12.22;100.00
34482;BME280;20720;48.886;9.388;2023-03-14T05:15:48;96463.34;;;12.12;100.00
34482;BME280;20720;48.886;9.388;2023-03-14T05:18:15;96455.09;;;11.93;100.00
34482;BME280;20720;48.886;9.388;2023-03-14T05:20:40;96447.75;;;12.00;100.00
34482;BME280;20720;48.886;9.388;2023-03-14T05:23:08;96454.25;;;12.29;100.00
34482;BME280;20720;48.886;9.388;2023-03-14T05:25:33;96457.53;;;12.05;100.00
34482;BME280;20720;48.886;9.388;2023-03-14T05:27:58;96443.81;;;12.03;100.00
34482;BME280;20720;48.886;9.388;2023-03-14T05:30:23;96453.00;;;11.95;100.00
34482;BME280;20720;48.886;9.388;2023-03-14T05:32:48;96444.44;;;12.20;100.00
34482;BME280;20720;48.886;9.388;2023-03-14T05:35:13;96437.91;;;12.22;100.00
34482;BME280;20720;48.886;9.388;2023-03-14T05:37:39;96430.88;;;11.96;100.00
34482;BME280;20720;48.886;9.388;2023-03-14T05:40:05;96418.25;;;11.98;100.00
34482;BME280;20720;48.886;9.388;2023-03-14T05:42:31;96420.78;;;11.78;100.00
34482;BME280;20720;48.886;9.388;2023-03-14T05:44:56;96418.97;;;11.84;100.00
34482;BME280;20720;48.886;9.388;2023-03-14T05:47:21;96430.84;;;11.91;100.00
34482;BME280;20720;48.886;9.388;2023-03-14T05:49:46;96421.25;;;11.75;100.00
34482;BME280;20720;48.886;9.388;2023-03-14T05:52:12;96419.13;;;11.67;100.00
34482;BME280;20720;48.886;9.388;2023-03-14T05:54:37;96434.47;;;11.80;100.00
34482;BME280;20720;48.886;9.388;2023-03-14T05:57:02;96429.31;;;11.95;100.00
34482;BME280;20720;48.886;9.388;2023-03-14T05:59:27;96428.84;;;12.08;100.00
34482;BME280;20720;48.886;9.388;2023-03-14T06:01:52;96428.78;;;11.98;100.00
34482;BME280;20720;48.886;9.388;2023-03-14T06:04:18;96427.13;;;11.82;100.00
34482;BME280;20720;48.886;9.388;2023-03-14T06:06:43;96436.63;;;11.88;100.00
34482;BME280;20720;48.886;9.388;2023-03-14T06:09:08;96441.41;;;11.96;100.00
34482;BME280;20720;48.886;9.388;2023-03-14T06:11:33;96440.00;;;12.20;100.00
34482;BME280;20720;48.886;9.388;2023-03-14T06:13:58;96442.91;;;12.29;100.00
34482;BME280;20720;48.886;9.388;2023-03-14T06:16:23;96452.69;;;12.34;100.00
34482;BME280;20720;48.886;9.388;2023-03-14T06:18:49;96451.38;;;12.36;100.00
34482;BME280;20720;48.886;9.388;2023-03-14T06:21:14;96451.97;;;12.48;100.00
34482;BME280;20720;48.886;9.388;2023-03-14T06:23:39;96450.25;;;12.22;100.00
34482;BME280;20720;48.886;9.388;2023-03-14T06:26:05;96443.34;;;12.68;100.00
34482;BME280;20720;48.886;9.388;2023-03-14T06:28:30;96453.91;;;12.21;100.00
34482;BME280;20720;48.886;9.388;2023-03-14T06:30:55;96460.00;;;12.26;100.00
34482;BME280;20720;48.886;9.388;2023-03-14T06:33:20;96456.41;;;12.43;100.00
34482;BME280;20720;48.886;9.388;2023-03-14T06:35:46;96451.81;;;12.23;100.00
34482;BME280;20720;48.886;9.388;2023-03-14T06:38:11;96444.00;;;12.33;100.00
34482;BME280;20720;48.886;9.388;2023-03-14T06:40:36;96452.91;;;12.32;100.00
34482;BME280;20720;48.886;9.388;2023-03-14T06:43:01;96451.28;;;12.21;100.00
34482;BME280;20720;48.886;9.388;2023-03-14T06:45:26;96436.81;;;12.18;100.00
34482;BME280;20720;48.886;9.388;2023-03-14T06:47:51;96435.56;;;12.36;100.00
34482;BME280;20720;48.886;9.388;2023-03-14T06:50:17;96437.09;;;12.22;100.00
34482;BME280;20720;48.886;9.388;2023-03-14T06:52:42;96436.00;;;12.13;100.00
34482;BME280;20720;48.886;9.388;2023-03-14T06:55:12;96426.28;;;12.18;100.00
34482;BME280;20720;48.886;9.388;2023-03-14T06:57:38;96428.38;;;12.16;100.00
34482;BME280;20720;48.886;9.388;2023-03-14T07:00:03;96437.31;;;12.15;100.00
34482;BME280;20720;48.886;9.388;2023-03-14T07:02:29;96438.31;;;12.04;100.00
34482;BME280;20720;48.886;9.388;2023-03-14T07:04:54;96430.50;;;12.24;100.00
34482;BME280;20720;48.886;9.388;2023-03-14T07:07:19;96434.91;;;12.66;100.00
34482;BME280;20720;48.886;9.388;2023-03-14T07:09:44;96438.31;;;12.56;100.00
34482;BME280;20720;48.886;9.388;2023-03-14T07:12:09;96437.06;;;12.79;100.00
34482;BME280;20720;48.886;9.388;2023-03-14T07:14:35;96438.63;;;12.80;100.00
34482;BME280;20720;48.886;9.388;2023-03-14T07:17:00;96440.25;;;12.91;100.00
34482;BME280;20720;48.886;9.388;2023-03-14T07:19:25;96432.88;;;12.88;100.00
34482;BME280;20720;48.886;9.388;2023-03-14T07:21:50;96438.19;;;13.03;100.00
34482;BME280;20720;48.886;9.388;2023-03-14T07:24:15;96445.91;;;13.45;100.00
34482;BME280;20720;48.886;9.388;2023-03-14T07:26:40;96444.00;;;13.05;100.00
34482;BME280;20720;48.886;9.388;2023-03-14T07:29:06;96446.16;;;13.48;100.00
34482;BME280;20720;48.886;9.388;2023-03-14T07:31:31;96448.81;;;13.83;100.00
34482;BME280;20720;48.886;9.388;2023-03-14T07:33:56;96439.28;;;13.97;100.00
34482;BME280;20720;48.886;9.388;2023-03-14T07:36:21;96448.78;;;14.03;100.00
34482;BME280;20720;48.886;9.388;2023-03-14T07:38:47;96450.19;;;14.65;100.00
34482;BME280;20720;48.886;9.388;2023-03-14T07:41:12;96455.34;;;14.21;100.00
34482;BME280;20720;48.886;9.388;2023-03-14T07:43:38;96458.75;;;14.47;100.00
34482;BME280;20720;48.886;9.388;2023-03-14T07:46:03;96458.13;;;15.19;100.00
34482;BME280;20720;48.886;9.388;2023-03-14T07:48:28;96462.09;;;14.67;100.00
34482;BME280;20720;48.886;9.388;2023-03-14T07:50:54;96471.44;;;14.35;100.00
34482;BME280;20720;48.886;9.388;2023-03-14T07:53:20;96469.84;;;14.44;100.00
34482;BME280;20720;48.886;9.388;2023-03-14T07:55:45;96466.47;;;14.92;100.00
34482;BME280;20720;48.886;9.388;2023-03-14T07:58:11;96460.50;;;15.25;96.78
34482;BME280;20720;48.886;9.388;2023-03-14T08:00:36;96465.63;;;15.55;96.01
34482;BME280;20720;48.886;9.388;2023-03-14T08:03:01;96469.28;;;15.93;93.47
34482;BME280;20720;48.886;9.388;2023-03-14T08:05:27;96474.69;;;15.44;96.66
34482;BME280;20720;48.886;9.388;2023-03-14T08:07:52;96471.00;;;15.35;94.62
34482;BME280;20720;48.886;9.388;2023-03-14T08:10:17;96465.41;;;14.98;100.00
34482;BME280;20720;48.886;9.388;2023-03-14T08:12:49;96462.28;;;15.73;95.11
34482;BME280;20720;48.886;9.388;2023-03-14T08:15:14;96474.38;;;15.02;96.09
34482;BME280;20720;48.886;9.388;2023-03-14T08:17:39;96466.41;;;15.07;94.87
34482;BME280;20720;48.886;9.388;2023-03-14T08:20:05;96465.16;;;15.38;94.51
34482;BME280;20720;48.886;9.388;2023-03-14T08:22:35;96463.31;;;14.90;96.44
34482;BME280;20720;48.886;9.388;2023-03-14T08:25:01;96451.34;;;15.46;93.99
34482;BME280;20720;48.886;9.388;2023-03-14T08:27:26;96449.16;;;15.15;92.47
34482;BME280;20720;48.886;9.388;2023-03-14T08:29:51;96447.59;;;15.57;90.16
34482;BME280;20720;48.886;9.388;2023-03-14T08:32:16;96448.25;;;16.01;90.44
34482;BME280;20720;48.886;9.388;2023-03-14T08:34:41;96455.03;;;15.55;91.24
34482;BME280;20720;48.886;9.388;2023-03-14T08:37:06;96455.50;;;16.20;89.68
34482;BME280;20720;48.886;9.388;2023-03-14T08:39:32;96463.94;;;16.74;84.31
34482;BME280;20720;48.886;9.388;2023-03-14T08:41:57;96476.19;;;15.55;90.51
34482;BME280;20720;48.886;9.388;2023-03-14T08:44:22;96474.47;;;15.74;89.21
34482;BME280;20720;48.886;9.388;2023-03-14T08:46:47;96473.22;;;15.23;93.26
34482;BME280;20720;48.886;9.388;2023-03-14T08:49:13;96467.34;;;15.26;94.00
34482;BME280;20720;48.886;9.388;2023-03-14T08:51:39;96478.13;;;14.86;94.58
34482;BME280;20720;48.886;9.388;2023-03-14T08:54:04;96476.50;;;15.00;91.75
34482;BME280;20720;48.886;9.388;2023-03-14T08:56:30;96475.09;;;15.18;93.88
34482;BME280;20720;48.886;9.388;2023-03-14T08:58:55;96490.94;;;14.59;91.97
34482;BME280;20720;48.886;9.388;2023-03-14T09:01:20;96472.84;;;14.86;89.23
34482;BME280;20720;48.886;9.388;2023-03-14T09:03:48;96484.75;;;14.88;89.83
34482;BME280;20720;48.886;9.388;2023-03-14T09:06:14;96487.72;;;14.72;90.66
34482;BME280;20720;48.886;9.388;2023-03-14T09:08:42;96486.59;;;14.93;90.63
34482;BME280;20720;48.886;9.388;2023-03-14T09:11:08;96494.97;;;15.10;92.29
34482;BME280;20720;48.886;9.388;2023-03-14T09:13:33;96500.91;;;14.77;91.94
34482;BME280;20720;48.886;9.388;2023-03-14T09:15:58;96504.25;;;14.29;94.75
34482;BME280;20720;48.886;9.388;2023-03-14T09:18:24;96507.59;;;14.54;95.44
34482;BME280;20720;48.886;9.388;2023-03-14T09:20:49;96504.69;;;14.61;91.39
34482;BME280;20720;48.886;9.388;2023-03-14T09:23:15;96503.59;;;14.72;92.69
34482;BME280;20720;48.886;9.388;2023-03-14T09:25:40;96519.69;;;14.80;92.35
34482;BME280;20720;48.886;9.388;2023-03-14T09:28:05;96535.91;;;14.39;95.83
34482;BME280;20720;48.886;9.388;2023-03-14T09:30:30;96528.97;;;14.78;98.06
34482;BME280;20720;48.886;9.388;2023-03-14T09:32:56;96528.00;;;14.44;100.00
34482;BME280;20720;48.886;9.388;2023-03-14T09:35:22;96527.72;;;14.10;100.00
34482;BME280;20720;48.886;9.388;2023-03-14T09:37:47;96541.97;;;13.99;100.00
34482;BME280;20720;48.886;9.388;2023-03-14T09:40:13;96550.09;;;14.78;96.42
34482;BME280;20720;48.886;9.388;2023-03-14T09:42:39;96544.91;;;14.28;100.00
34482;BME280;20720;48.886;9.388;2023-03-14T09:45:06;96536.44;;;14.15;100.00
34482;BME280;20720;48.886;9.388;2023-03-14T09:47:35;96542.78;;;14.45;100.00
34482;BME280;20720;48.886;9.388;2023-03-14T09:50:00;96546.84;;;15.01;100.00
34482;BME280;20720;48.886;9.388;2023-03-14T09:52:33;96541.72;;;14.00;100.00
34482;BME280;20720;48.886;9.388;2023-03-14T09:57:26;96542.75;;;14.60;100.00
34482;BME280;20720;48.886;9.388;2023-03-14T09:59:53;96542.66;;;14.90;100.00
34482;BME280;20720;48.886;9.388;2023-03-14T10:02:21;96540.00;;;14.95;100.00
34482;BME280;20720;48.886;9.388;2023-03-14T10:04:47;96538.97;;;14.81;99.80
34482;BME280;20720;48.886;9.388;2023-03-14T10:07:29;96540.09;;;14.50;100.00
34482;BME280;20720;48.886;9.388;2023-03-14T10:09:55;96538.25;;;14.60;100.00
34482;BME280;20720;48.886;9.388;2023-03-14T10:12:22;96526.25;;;15.90;95.02
34482;BME280;20720;48.886;9.388;2023-03-14T10:14:54;96538.25;;;15.78;93.88
34482;BME280;20720;48.886;9.388;2023-03-14T10:17:20;96519.03;;;15.62;92.29
34482;BME280;20720;48.886;9.388;2023-03-14T10:22:16;96528.38;;;15.88;86.98
34482;BME280;20720;48.886;9.388;2023-03-14T10:24:44;96523.94;;;16.93;81.57
34482;BME280;20720;48.886;9.388;2023-03-14T10:27:30;96531.22;;;16.59;80.64
34482;BME280;20720;48.886;9.388;2023-03-14T10:29:56;96515.19;;;17.72;76.67
34482;BME280;20720;48.886;9.388;2023-03-14T10:32:23;96531.00;;;16.56;84.30
34482;BME280;20720;48.886;9.388;2023-03-14T10:37:47;96531.72;;;16.85;81.79
34482;BME280;20720;48.886;9.388;2023-03-14T10:40:13;96515.09;;;17.22;83.23
34482;BME280;20720;48.886;9.388;2023-03-14T10:42:39;96513.16;;;15.70;88.96
34482;BME280;20720;48.886;9.388;2023-03-14T10:45:05;96509.00;;;15.05;94.11
34482;BME280;20720;48.886;9.388;2023-03-14T10:47:32;96510.94;;;15.44;94.28
34482;BME280;20720;48.886;9.388;2023-03-14T10:50:18;96524.13;;;15.49;93.32
34482;BME280;20720;48.886;9.388;2023-03-14T10:52:47;96519.69;;;15.44;92.89
34482;BME280;20720;48.886;9.388;2023-03-14T10:55:13;96514.38;;;15.39;93.98
34482;BME280;20720;48.886;9.388;2023-03-14T10:57:41;96525.13;;;15.09;95.29
34482;BME280;20720;48.886;9.388;2023-03-14T11:00:14;96527.88;;;15.43;92.87
34482;BME280;20720;48.886;9.388;2023-03-14T11:20:23;96559.13;;;14.62;97.69
34482;BME280;20720;48.886;9.388;2023-03-14T11:35:55;96568.13;;;13.95;100.00
34482;BME280;20720;48.886;9.388;2023-03-14T11:37:56;96572.09;;;13.88;100.00
34482;BME280;20720;48.886;9.388;2023-03-14T11:40:26;96572.88;;;13.88;100.00
34482;BME280;20720;48.886;9.388;2023-03-14T11:45:51;96564.44;;;13.96;100.00
34482;BME280;20720;48.886;9.388;2023-03-14T11:48:20;96571.06;;;14.29;100.00
34482;BME280;20720;48.886;9.388;2023-03-14T11:50:50;96577.66;;;13.96;100.00
34482;BME280;20720;48.886;9.388;2023-03-14T11:53:22;96565.47;;;14.26;100.00
34482;BME280;20720;48.886;9.388;2023-03-14T11:55:50;96578.69;;;13.95;100.00
34482;BME280;20720;48.886;9.388;2023-03-14T11:58:29;96588.19;;;14.01;100.00
34482;BME280;20720;48.886;9.388;2023-03-14T12:00:56;96596.09;;;13.76;100.00
34482;BME280;20720;48.886;9.388;2023-03-14T12:11:03;96567.44;;;13.13;100.00
34482;BME280;20720;48.886;9.388;2023-03-14T12:13:33;96559.03;;;13.26;100.00
34482;BME280;20720;48.886;9.388;2023-03-14T12:16:03;96567.03;;;12.43;100.00
34482;BME280;20720;48.886;9.388;2023-03-14T12:18:33;96568.75;;;12.64;100.00
34482;BME280;20720;48.886;9.388;2023-03-14T12:21:03;96579.13;;;12.44;100.00
34482;BME280;20720;48.886;9.388;2023-03-14T12:26:15;96589.94;;;12.89;100.00
34482;BME280;20720;48.886;9.388;2023-03-14T12:28:48;96597.94;;;13.04;100.00
34482;BME280;20720;48.886;9.388;2023-03-14T12:42:12;96602.00;;;12.38;100.00
34482;BME280;20720;48.886;9.388;2023-03-14T12:49:47;96645.53;;;11.87;100.00
34482;BME280;20720;48.886;9.388;2023-03-14T12:52:14;96669.59;;;11.53;100.00
34482;BME280;20720;48.886;9.388;2023-03-14T12:54:42;96716.44;;;11.12;100.00
34482;BME280;20720;48.886;9.388;2023-03-14T12:59:58;96749.50;;;11.30;100.00
34482;BME280;20720;48.886;9.388;2023-03-14T13:02:25;96753.25;;;11.34;100.00
34482;BME280;20720;48.886;9.388;2023-03-14T13:05:02;96787.69;;;10.66;100.00
34482;BME280;20720;48.886;9.388;2023-03-14T13:15:22;96822.66;;;12.58;92.15
34482;BME280;20720;48.886;9.388;2023-03-14T13:17:49;96838.94;;;13.03;91.29
34482;BME280;20720;48.886;9.388;2023-03-14T13:20:16;96856.16;;;12.89;87.64
34482;BME280;20720;48.886;9.388;2023-03-14T13:22:47;96855.44;;;11.80;83.64
34482;BME280;20720;48.886;9.388;2023-03-14T13:25:13;96878.59;;;12.65;81.38
34482;BME280;20720;48.886;9.388;2023-03-14T13:27:38;96876.00;;;13.23;76.99
34482;BME280;20720;48.886;9.388;2023-03-14T13:30:24;96889.56;;;13.05;76.47
34482;BME280;20720;48.886;9.388;2023-03-14T13:32:51;96907.81;;;12.85;78.27
34482;BME280;20720;48.886;9.388;2023-03-14T13:35:17;96913.94;;;12.69;77.46
34482;BME280;20720;48.886;9.388;2023-03-14T13:37:43;96921.44;;;12.34;76.76
34482;BME280;20720;48.886;9.388;2023-03-14T13:40:18;96946.63;;;13.16;72.75
34482;BME280;20720;48.886;9.388;2023-03-14T13:42:43;96951.94;;;13.21;67.37
34482;BME280;20720;48.886;9.388;2023-03-14T13:45:09;96943.41;;;13.09;67.19
34482;BME280;20720;48.886;9.388;2023-03-14T13:47:37;96965.53;;;12.86;69.34
34482;BME280;20720;48.886;9.388;2023-03-14T13:50:03;96967.78;;;12.35;65.98
34482;BME280;20720;48.886;9.388;2023-03-14T13:52:35;96976.25;;;12.37;65.44
34482;BME280;20720;48.886;9.388;2023-03-14T13:55:01;96980.13;;;12.72;64.65
34482;BME280;20720;48.886;9.388;2023-03-14T13:57:28;97002.94;;;12.23;64.39
34482;BME280;20720;48.886;9.388;2023-03-14T14:00:07;97008.91;;;13.17;63.89
34482;BME280;20720;48.886;9.388;2023-03-14T14:02:35;97014.28;;;12.24;64.42
34482;BME280;20720;48.886;9.388;2023-03-14T14:05:01;97021.97;;;12.69;64.31
34482;BME280;20720;48.886;9.388;2023-03-14T14:07:26;97029.75;;;12.20;67.49
34482;BME280;20720;48.886;9.388;2023-03-14T14:09:52;97048.56;;;11.79;70.03
34482;BME280;20720;48.886;9.388;2023-03-14T14:12:29;97052.25;;;12.11;70.24